WEATHER DATA

TODAY
Time Temp. Dewp. Hum. Wind dir Wind speed Wind gust Bar. 1h Prec. 24h Prec.
00:02 -1.9 -2.8 93 0 0 1021.6 0.0000 0.0000
00:12 -2 -2.9 93 0 0 1021.6 0.0000 0.0000
00:21 -2.2 -3.1 93 0 0 1021.6 0.0000 0.0000
00:32 -2.3 -3.2 93 0 0 1021.6 0.0000 0.0000
00:42 -2.4 -3.3 93 0 0 1021.6 0.0000 0.0000
00:52 -2.5 -3.4 93 0 0 1021.6 0.0000 0.0000
01:01 -2.5 -3.2 94 0 0 1021.6 0.0000 0.0000
01:12 -2.5 -3.2 94 0 0 1021.4 0.0000 0.0000
01:22 -2.6 -3.2 95 0 0 1021.4 0.0000 0.0000
01:31 -2.6 -3.3 94 0 0 1021.4 0.0000 0.0000
01:42 -2.7 -3.4 94 0 0 1021.4 0.0000 0.0000
01:52 -2.8 -3.5 94 0 0 1021.4 0.0000 0.0000
02:02 -2.8 -3.5 94 0 0 1021.4 0.0000 0.0000
02:11 -2.9 -3.5 95 0 0 1021.6 0.0000 0.0000
02:22 -2.9 -3.6 94 0 0 1021.4 0.0000 0.0000
02:32 -3 -3.7 94 0 0 1021.3 0.0000 0.0000
02:41 -3.1 -3.7 95 0 0 1021.3 0.0000 0.0000
02:52 -3.2 -3.8 95 0 0 1021.2 0.0000 0.0000
03:02 -3.2 -3.8 95 0 0 1021.1 0.0000 0.0000
03:12 -3.2 -3.8 95 0 0 1021.1 0.0000 0.0000
03:27 -3.3 -3.9 95 0 0 1021 0.0000 0.0000
03:37 -3.4 -4 95 0 0 1021 0.0000 0.0000
03:52 -3.5 -4.1 95 0 0 1021 0.0000 0.0000
04:02 -3.5 -4.1 95 0 0 1021 0.0000 0.0000
04:22 -3.6 -4.2 95 0 0 1021 0.0000 0.0000
04:32 -3.7 -4.3 95 0 0 1021.1 0.0000 0.0000
04:43 -3.7 -4.3 95 0 0 1021.1 0.0000 0.0000
04:52 -3.7 -4.2 96 0 0 1021 0.0000 0.0000
05:02 -3.7 -4.2 96 0 0 1021 0.0000 0.0000
05:13 -3.7 -4.2 96 0 0 1021.1 0.0000 0.0000
05:23 -3.7 -4.2 96 0 0 1021.1 0.0000 0.0000
05:32 -3.7 -4.2 96 0 0 1021.1 0.0000 0.0000
05:43 -3.7 -4.2 96 0 0 1021 0.0000 0.0000
05:52 -3.7 -4.2 96 0 0 1021 0.0000 0.0000
06:01 -3.7 -4.2 96 0 0 1021.1 0.0000 0.0000
06:12 -3.7 -4.2 96 0 0 1021.1 0.0000 0.0000
06:22 -3.6 -4 97 0 0 1021.2 0.0000 0.0000
06:32 -3.7 -4.2 96 0 0 1021.3 0.0000 0.0000
06:41 -3.6 -4 97 0 0 1021.3 0.0000 0.0000
06:57 -3.3 -3.5 98 0 0 1021.3 0.0000 0.0000
07:07 -3.2 -3.4 98 0 0 1021.2 0.0000 0.0000
07:17 -3 -3.2 98 0 0 1021.3 0.0000 0.0000
07:27 -2.8 -3 98 0 0 1021.4 0.0000 0.0000
07:37 -2.6 -2.8 98 0 0 1021.7 0.0000 0.0000
07:47 -2.5 -2.7 98 0 0 1021.7 0.0000 0.0000
07:57 -2.4 -2.6 98 0 0 1021.7 0.0000 0.0000
08:07 -2.3 -2.4 99 0 0 1021.9 0.0000 0.0000
08:27 -1.9 -2 99 0 0 1022.1 0.0000 0.0000
08:37 -1.8 -1.9 99 0 0 1022.1 0.0000 0.0000
08:47 -1.6 -1.7 99 0 0 1022.2 0.0000 0.0000
08:57 -1.4 -1.5 99 0 0 1022.2 0.0000 0.0000
09:08 -1.2 -1.3 99 0 0 1022.2 0.0000 0.0000
09:18 -0.9 -1 99 0 0 1022.4 0.0000 0.0000
09:27 -0.7 -0.8 99 0 0 1022.5 0.0000 0.0000
09:38 -0.4 -0.5 99 0 0 1022.6 0.0000 0.0000
09:48 -0.3 -0.4 99 0 0 1022.7 0.0000 0.0000
09:57 -0.1 -0.2 99 0 0 1022.8 0.1010 0.1000
10:07 0 -0.1 99 0 0 1022.9 0.1010 0.1000
10:18 0.1 0 99 0 0 1023 0.1010 0.1000
10:28 0.2 0.1 99 0 0 1023.2 0.1010 0.1000
10:37 0.3 0.2 99 0 0 1023.3 0.1010 0.1000
10:48 0.4 0.3 99 0 0 1023.4 0.2020 0.2000
10:58 0.5 0.4 99 0 0 1023.5 0.2020 0.3000
11:03 0.7 0.6 99 0 0 1023.5 0.3030 0.4000
11:12 1 1 100 0 0 1023.6 0.3030 0.4000
11:23 1.6 1.6 100 0 0 1023.6 0.4040 0.5000
11:36 2 2 100 0 0 1023.7 0.5050 0.6000
11:47 2 2 100 0 0 1023.8 0.5050 0.7000
11:57 2 2 100 0 0 1023.8 0.4040 0.7000
12:07 2.1 2.1 100 0 0 1023.6 0.3030 0.7000
12:16 2.1 2.1 100 0 0 1023.6 0.3030 0.8000
12:27 2.2 2.2 100 0 0 1023.7 0.3030 0.8000
12:37 2.4 2.4 100 0 0 1023.6 0.2020 0.8000
12:46 2.7 2.7 100 0 0 1023.5 0.2020 0.9000
12:57 3.1 3.1 100 0 0 1023.5 0.2020 0.9000
13:07 3.6 3.6 100 0 0 1023.4 0.1010 0.9000
13:17 4 4 100 0 0 1023.4 0.1010 0.9000
13:27 4.4 4.4 100 0 0 1023.3 0.1010 0.9000
13:37 4.8 4.8 100 0 0 1023.1 0.1010 0.9000
13:47 5.5 5.5 100 0 0 1023.2 0.0000 0.9000
13:57 5.9 5.6 98 0 0 1023 0.0000 0.9000
14:07 6.4 6 97 0 0 1023 0.0000 0.9000
14:17 6.9 5.8 93 0 0 1023.1 0.0000 0.9000
14:27 7 5.5 90 0 0 1023.2 0.0000 0.9000
14:37 7.1 5.4 89 0 0 1023.1 0.0000 0.9000
14:47 7.2 5.3 88 0 0 1023 0.0000 0.9000
14:57 7.3 5.3 87 0 0 1023 0.0000 0.9000
15:07 7.5 5.3 86 0 0 1022.9 0.0000 0.9000
15:17 7.8 5.4 85 0 0 1022.9 0.0000 0.9000
15:27 8 5.5 84 0 0 1023 0.0000 0.9000
15:37 8.2 5.3 82 0 0 1023 0.0000 0.9000
15:47 8.4 5.3 81 0 0 1023.1 0.0000 0.9000
15:57 8.3 4.9 79 0 0 1023.2 0.0000 0.9000
16:07 8.3 4.9 79 0 0 1023 0.0000 0.9000
16:17 8.1 4.5 78 0 0 1023.1 0.0000 0.9000
16:27 7.9 4.5 79 0 0 1022.9 0.0000 0.9000
16:37 7.6 4.4 80 0 0 1023 0.0000 0.9000
16:47 7.3 4.3 81 0 0 1023.1 0.0000 0.9000
16:57 7 4 81 0 0 1023.1 0.0000 0.9000
17:07 6.7 3.8 82 0 0 1023 0.0000 0.9000
17:17 6.5 3.8 83 0 0 1023.1 0.0000 0.9000
17:27 6 3.3 83 0 0 1023.1 0.0000 0.9000
17:37 5.6 3.1 84 0 0 1023.2 0.0000 0.9000
17:49 4.9 2.4 84 0 0 1023.3 0.0000 0.9000

DAY STATISTIC

2019-02-19
TEMPERATURE
AVERAGE
0.6
HIGH
8.4
15:47
LOW
-3.7
04:32
PRESSURE
AVERAGE
1022.3
HIGH
1023.8
11:47
LOW
1021.0
03:27
DEWPOINT
AVERAGE
-0.2
HIGH
6.0
14:07
LOW
-4.3
04:32
HUMIDITY
AVERAGE
94
HIGH
100
11:12
LOW
78
16:17
WIND SPEED
AVERAGE
0.0
HIGH
0.0
16:55
WIND GUST
AVERAGE
0.0
HIGH
0.0
16:55
WIND DIRECTION
PREVAILING
%
PRECIPITATION
RAIN HOUR
0.5
RAIN DAY
0.9
TEMPERATURE (°C)
LOW
-3.7
HIGH
8.4
AVERAGE
0.6
PRESSURE (hpa)
LOW
1021.0
HIGH
1023.8
AVERAGE
1022.3
DEVICE